sensor_id;sensor_type;location;lat;lon;timestamp;pressure;altitude;pressure_sealevel;temperature
13570;BMP180;6856;51.460;7.158;2023-09-08T00:01:06;100696.00;;;24.40
13570;BMP180;6856;51.460;7.158;2023-09-08T00:03:40;100691.00;;;24.40
13570;BMP180;6856;51.460;7.158;2023-09-08T00:06:16;100688.00;;;24.40
13570;BMP180;6856;51.460;7.158;2023-09-08T00:08:50;100689.00;;;24.30
13570;BMP180;6856;51.460;7.158;2023-09-08T00:11:23;100691.00;;;24.30
13570;BMP180;6856;51.460;7.158;2023-09-08T00:13:57;100684.00;;;24.30
13570;BMP180;6856;51.460;7.158;2023-09-08T00:16:30;100671.00;;;24.30
13570;BMP180;6856;51.460;7.158;2023-09-08T00:19:05;100693.00;;;24.20
13570;BMP180;6856;51.460;7.158;2023-09-08T00:21:40;100684.00;;;24.20
13570;BMP180;6856;51.460;7.158;2023-09-08T00:24:15;100689.00;;;24.20
13570;BMP180;6856;51.460;7.158;2023-09-08T00:26:52;100690.00;;;24.10
13570;BMP180;6856;51.460;7.158;2023-09-08T00:29:25;100687.00;;;24.10
13570;BMP180;6856;51.460;7.158;2023-09-08T00:32:01;100688.00;;;24.10
13570;BMP180;6856;51.460;7.158;2023-09-08T00:34:35;100690.00;;;24.10
13570;BMP180;6856;51.460;7.158;2023-09-08T00:37:10;100687.00;;;24.00
13570;BMP180;6856;51.460;7.158;2023-09-08T00:39:44;100685.00;;;24.00
13570;BMP180;6856;51.460;7.158;2023-09-08T00:42:19;100686.00;;;24.00
13570;BMP180;6856;51.460;7.158;2023-09-08T00:44:53;100680.00;;;24.00
13570;BMP180;6856;51.460;7.158;2023-09-08T00:47:26;100681.00;;;23.90
13570;BMP180;6856;51.460;7.158;2023-09-08T00:50:01;100656.00;;;23.90
13570;BMP180;6856;51.460;7.158;2023-09-08T00:52:36;100679.00;;;23.90
13570;BMP180;6856;51.460;7.158;2023-09-08T00:55:12;100677.00;;;23.90
13570;BMP180;6856;51.460;7.158;2023-09-08T00:57:46;100684.00;;;23.90
13570;BMP180;6856;51.460;7.158;2023-09-08T01:00:20;100672.00;;;23.80
13570;BMP180;6856;51.460;7.158;2023-09-08T01:02:53;100678.00;;;23.80
13570;BMP180;6856;51.460;7.158;2023-09-08T01:05:28;100643.00;;;23.80
13570;BMP180;6856;51.460;7.158;2023-09-08T01:08:05;100669.00;;;23.80
13570;BMP180;6856;51.460;7.158;2023-09-08T01:10:41;100663.00;;;23.80
13570;BMP180;6856;51.460;7.158;2023-09-08T01:13:20;100666.00;;;23.70
13570;BMP180;6856;51.460;7.158;2023-09-08T01:15:54;100671.00;;;23.70
13570;BMP180;6856;51.460;7.158;2023-09-08T01:18:27;100673.00;;;23.70
13570;BMP180;6856;51.460;7.158;2023-09-08T01:21:37;100672.00;;;23.70
13570;BMP180;6856;51.460;7.158;2023-09-08T01:27:35;100656.00;;;23.60
13570;BMP180;6856;51.460;7.158;2023-09-08T01:30:12;100661.00;;;23.60
13570;BMP180;6856;51.460;7.158;2023-09-08T01:32:48;100666.00;;;23.50
13570;BMP180;6856;51.460;7.158;2023-09-08T01:35:23;100660.00;;;23.50
13570;BMP180;6856;51.460;7.158;2023-09-08T01:37:57;100656.00;;;23.50
13570;BMP180;6856;51.460;7.158;2023-09-08T01:40:34;100659.00;;;23.50
13570;BMP180;6856;51.460;7.158;2023-09-08T01:43:08;100656.00;;;23.40
13570;BMP180;6856;51.460;7.158;2023-09-08T01:45:47;100658.00;;;23.40
13570;BMP180;6856;51.460;7.158;2023-09-08T01:48:20;100656.00;;;23.40
13570;BMP180;6856;51.460;7.158;2023-09-08T01:50:54;100655.00;;;23.40
13570;BMP180;6856;51.460;7.158;2023-09-08T01:53:30;100656.00;;;23.40
13570;BMP180;6856;51.460;7.158;2023-09-08T01:56:04;100662.00;;;23.40
13570;BMP180;6856;51.460;7.158;2023-09-08T01:58:40;100656.00;;;23.30
13570;BMP180;6856;51.460;7.158;2023-09-08T02:01:13;100659.00;;;23.30
13570;BMP180;6856;51.460;7.158;2023-09-08T02:03:47;100645.00;;;23.30
13570;BMP180;6856;51.460;7.158;2023-09-08T02:06:21;100648.00;;;23.20
13570;BMP180;6856;51.460;7.158;2023-09-08T02:08:54;100647.00;;;23.20
13570;BMP180;6856;51.460;7.158;2023-09-08T02:11:28;100649.00;;;23.20
13570;BMP180;6856;51.460;7.158;2023-09-08T02:14:03;100653.00;;;23.20
13570;BMP180;6856;51.460;7.158;2023-09-08T02:16:37;100642.00;;;23.10
13570;BMP180;6856;51.460;7.158;2023-09-08T02:19:10;100642.00;;;23.10
13570;BMP180;6856;51.460;7.158;2023-09-08T02:21:44;100645.00;;;23.10
13570;BMP180;6856;51.460;7.158;2023-09-08T02:24:21;100648.00;;;23.00
13570;BMP180;6856;51.460;7.158;2023-09-08T02:26:55;100647.00;;;23.00
13570;BMP180;6856;51.460;7.158;2023-09-08T02:29:31;100642.00;;;23.00
13570;BMP180;6856;51.460;7.158;2023-09-08T02:32:05;100644.00;;;23.00
13570;BMP180;6856;51.460;7.158;2023-09-08T02:34:39;100630.00;;;22.90
13570;BMP180;6856;51.460;7.158;2023-09-08T02:37:16;100633.00;;;22.90
13570;BMP180;6856;51.460;7.158;2023-09-08T02:39:51;100644.00;;;22.90
13570;BMP180;6856;51.460;7.158;2023-09-08T02:42:25;100651.00;;;22.90
13570;BMP180;6856;51.460;7.158;2023-09-08T02:45:00;100649.00;;;22.80
13570;BMP180;6856;51.460;7.158;2023-09-08T02:47:42;100652.00;;;22.80
13570;BMP180;6856;51.460;7.158;2023-09-08T02:50:16;100637.00;;;22.80
13570;BMP180;6856;51.460;7.158;2023-09-08T02:52:49;100650.00;;;22.80
13570;BMP180;6856;51.460;7.158;2023-09-08T02:55:23;100650.00;;;22.70
13570;BMP180;6856;51.460;7.158;2023-09-08T02:57:58;100659.00;;;22.70
13570;BMP180;6856;51.460;7.158;2023-09-08T03:00:33;100655.00;;;22.70
13570;BMP180;6856;51.460;7.158;2023-09-08T03:03:07;100653.00;;;22.60
13570;BMP180;6856;51.460;7.158;2023-09-08T03:05:41;100653.00;;;22.60
13570;BMP180;6856;51.460;7.158;2023-09-08T03:08:14;100653.00;;;22.60
13570;BMP180;6856;51.460;7.158;2023-09-08T03:10:48;100652.00;;;22.60
13570;BMP180;6856;51.460;7.158;2023-09-08T03:13:22;100652.00;;;22.50
13570;BMP180;6856;51.460;7.158;2023-09-08T03:16:02;100645.00;;;22.50
13570;BMP180;6856;51.460;7.158;2023-09-08T03:18:37;100633.00;;;22.50
13570;BMP180;6856;51.460;7.158;2023-09-08T03:21:14;100638.00;;;22.50
13570;BMP180;6856;51.460;7.158;2023-09-08T03:23:48;100637.00;;;22.40
13570;BMP180;6856;51.460;7.158;2023-09-08T03:26:21;100641.00;;;22.40
13570;BMP180;6856;51.460;7.158;2023-09-08T03:28:55;100641.00;;;22.40
13570;BMP180;6856;51.460;7.158;2023-09-08T03:31:31;100640.00;;;22.40
13570;BMP180;6856;51.460;7.158;2023-09-08T03:34:04;100636.00;;;22.30
13570;BMP180;6856;51.460;7.158;2023-09-08T03:36:41;100627.00;;;22.30
13570;BMP180;6856;51.460;7.158;2023-09-08T03:39:15;100629.00;;;22.30
13570;BMP180;6856;51.460;7.158;2023-09-08T03:41:49;100630.00;;;22.30
13570;BMP180;6856;51.460;7.158;2023-09-08T03:44:22;100623.00;;;22.30
13570;BMP180;6856;51.460;7.158;2023-09-08T03:46:58;100622.00;;;22.20
13570;BMP180;6856;51.460;7.158;2023-09-08T03:49:35;100629.00;;;22.20
13570;BMP180;6856;51.460;7.158;2023-09-08T03:52:08;100625.00;;;22.20
13570;BMP180;6856;51.460;7.158;2023-09-08T03:54:42;100622.00;;;22.20
13570;BMP180;6856;51.460;7.158;2023-09-08T03:57:16;100625.00;;;22.10
13570;BMP180;6856;51.460;7.158;2023-09-08T03:59:50;100624.00;;;22.10
13570;BMP180;6856;51.460;7.158;2023-09-08T04:02:25;100626.00;;;22.10
13570;BMP180;6856;51.460;7.158;2023-09-08T04:04:59;100621.00;;;22.10
13570;BMP180;6856;51.460;7.158;2023-09-08T04:07:36;100620.00;;;22.00
13570;BMP180;6856;51.460;7.158;2023-09-08T04:10:16;100623.00;;;22.00
13570;BMP180;6856;51.460;7.158;2023-09-08T04:12:50;100624.00;;;22.00
13570;BMP180;6856;51.460;7.158;2023-09-08T04:15:24;100622.00;;;22.00
13570;BMP180;6856;51.460;7.158;2023-09-08T04:18:01;100624.00;;;22.00
13570;BMP180;6856;51.460;7.158;2023-09-08T04:20:34;100617.00;;;21.90
13570;BMP180;6856;51.460;7.158;2023-09-08T04:23:08;100617.00;;;21.90
13570;BMP180;6856;51.460;7.158;2023-09-08T04:25:42;100618.00;;;21.90
13570;BMP180;6856;51.460;7.158;2023-09-08T04:28:16;100620.00;;;21.50
13570;BMP180;6856;51.460;7.158;2023-09-08T04:30:53;100618.00;;;21.70
13570;BMP180;6856;51.460;7.158;2023-09-08T04:33:30;100620.00;;;21.80
13570;BMP180;6856;51.460;7.158;2023-09-08T04:36:04;100616.00;;;21.80
13570;BMP180;6856;51.460;7.158;2023-09-08T04:38:38;100620.00;;;21.80
13570;BMP180;6856;51.460;7.158;2023-09-08T04:41:14;100623.00;;;21.80
13570;BMP180;6856;51.460;7.158;2023-09-08T04:43:47;100619.00;;;21.80
13570;BMP180;6856;51.460;7.158;2023-09-08T04:46:21;100616.00;;;21.80
13570;BMP180;6856;51.460;7.158;2023-09-08T04:48:59;100620.00;;;21.70
13570;BMP180;6856;51.460;7.158;2023-09-08T04:51:33;100621.00;;;21.70
13570;BMP180;6856;51.460;7.158;2023-09-08T04:54:07;100624.00;;;21.70
13570;BMP180;6856;51.460;7.158;2023-09-08T04:56:40;100626.00;;;21.70
13570;BMP180;6856;51.460;7.158;2023-09-08T04:59:14;100626.00;;;21.70
13570;BMP180;6856;51.460;7.158;2023-09-08T05:01:50;100629.00;;;21.70
13570;BMP180;6856;51.460;7.158;2023-09-08T05:04:25;100625.00;;;21.70
13570;BMP180;6856;51.460;7.158;2023-09-08T05:06:59;100625.00;;;21.60
13570;BMP180;6856;51.460;7.158;2023-09-08T05:09:34;100627.00;;;21.60
13570;BMP180;6856;51.460;7.158;2023-09-08T05:12:08;100620.00;;;21.60
13570;BMP180;6856;51.460;7.158;2023-09-08T05:14:42;100620.00;;;21.60
13570;BMP180;6856;51.460;7.158;2023-09-08T05:17:16;100624.00;;;21.60
13570;BMP180;6856;51.460;7.158;2023-09-08T05:19:51;100622.00;;;21.60
13570;BMP180;6856;51.460;7.158;2023-09-08T05:22:25;100621.00;;;21.60
13570;BMP180;6856;51.460;7.158;2023-09-08T05:25:01;100623.00;;;21.50
13570;BMP180;6856;51.460;7.158;2023-09-08T05:27:35;100617.00;;;21.50
13570;BMP180;6856;51.460;7.158;2023-09-08T05:30:10;100622.00;;;21.50
13570;BMP180;6856;51.460;7.158;2023-09-08T05:32:44;100620.00;;;21.50
13570;BMP180;6856;51.460;7.158;2023-09-08T05:35:18;100616.00;;;21.50
13570;BMP180;6856;51.460;7.158;2023-09-08T05:37:52;100624.00;;;21.50
13570;BMP180;6856;51.460;7.158;2023-09-08T05:40:26;100618.00;;;21.50
13570;BMP180;6856;51.460;7.158;2023-09-08T05:42:59;100618.00;;;21.50
13570;BMP180;6856;51.460;7.158;2023-09-08T05:45:33;100617.00;;;21.50
13570;BMP180;6856;51.460;7.158;2023-09-08T05:48:06;100616.00;;;21.50
13570;BMP180;6856;51.460;7.158;2023-09-08T05:50:42;100619.00;;;21.50
13570;BMP180;6856;51.460;7.158;2023-09-08T05:53:16;100625.00;;;21.50
13570;BMP180;6856;51.460;7.158;2023-09-08T05:55:49;100624.00;;;21.50
13570;BMP180;6856;51.460;7.158;2023-09-08T05:58:25;100608.00;;;21.50
13570;BMP180;6856;51.460;7.158;2023-09-08T06:00:59;100628.00;;;21.50
13570;BMP180;6856;51.460;7.158;2023-09-08T06:03:33;100627.00;;;21.50
13570;BMP180;6856;51.460;7.158;2023-09-08T06:06:08;100619.00;;;21.60
13570;BMP180;6856;51.460;7.158;2023-09-08T06:08:43;100597.00;;;21.60
13570;BMP180;6856;51.460;7.158;2023-09-08T06:11:17;100623.00;;;21.60
13570;BMP180;6856;51.460;7.158;2023-09-08T06:13:50;100623.00;;;21.60
13570;BMP180;6856;51.460;7.158;2023-09-08T06:16:28;100620.00;;;21.70
13570;BMP180;6856;51.460;7.158;2023-09-08T06:19:03;100626.00;;;21.70
13570;BMP180;6856;51.460;7.158;2023-09-08T06:21:38;100620.00;;;21.70
13570;BMP180;6856;51.460;7.158;2023-09-08T06:24:12;100594.00;;;21.80
13570;BMP180;6856;51.460;7.158;2023-09-08T06:26:46;100617.00;;;21.80
13570;BMP180;6856;51.460;7.158;2023-09-08T06:29:22;100608.00;;;21.90
13570;BMP180;6856;51.460;7.158;2023-09-08T06:31:55;100628.00;;;22.00
13570;BMP180;6856;51.460;7.158;2023-09-08T06:34:29;100628.00;;;22.10
13570;BMP180;6856;51.460;7.158;2023-09-08T06:37:07;100628.00;;;22.10
13570;BMP180;6856;51.460;7.158;2023-09-08T06:39:43;100629.00;;;22.20
13570;BMP180;6856;51.460;7.158;2023-09-08T06:42:17;100630.00;;;22.30
13570;BMP180;6856;51.460;7.158;2023-09-08T06:44:50;100636.00;;;22.40
13570;BMP180;6856;51.460;7.158;2023-09-08T06:47:24;100614.00;;;22.50
13570;BMP180;6856;51.460;7.158;2023-09-08T06:49:58;100643.00;;;22.60
13570;BMP180;6856;51.460;7.158;2023-09-08T06:52:33;100637.00;;;22.70
13570;BMP180;6856;51.460;7.158;2023-09-08T06:55:07;100638.00;;;22.80
13570;BMP180;6856;51.460;7.158;2023-09-08T06:57:41;100639.00;;;22.90
13570;BMP180;6856;51.460;7.158;2023-09-08T07:00:16;100633.00;;;23.00
13570;BMP180;6856;51.460;7.158;2023-09-08T07:02:53;100636.00;;;23.20
13570;BMP180;6856;51.460;7.158;2023-09-08T07:05:28;100638.00;;;23.30
13570;BMP180;6856;51.460;7.158;2023-09-08T07:08:04;100628.00;;;23.40
13570;BMP180;6856;51.460;7.158;2023-09-08T07:10:38;100641.00;;;23.50
13570;BMP180;6856;51.460;7.158;2023-09-08T07:13:12;100641.00;;;23.60
13570;BMP180;6856;51.460;7.158;2023-09-08T07:15:45;100642.00;;;23.70
13570;BMP180;6856;51.460;7.158;2023-09-08T07:18:22;100641.00;;;23.80
13570;BMP180;6856;51.460;7.158;2023-09-08T07:20:55;100645.00;;;24.00
13570;BMP180;6856;51.460;7.158;2023-09-08T07:23:31;100648.00;;;24.10
13570;BMP180;6856;51.460;7.158;2023-09-08T07:26:06;100641.00;;;24.20
13570;BMP180;6856;51.460;7.158;2023-09-08T07:28:39;100637.00;;;24.30
13570;BMP180;6856;51.460;7.158;2023-09-08T07:31:13;100642.00;;;24.40
13570;BMP180;6856;51.460;7.158;2023-09-08T07:33:47;100646.00;;;24.50
13570;BMP180;6856;51.460;7.158;2023-09-08T07:36:21;100644.00;;;24.70
13570;BMP180;6856;51.460;7.158;2023-09-08T07:38:56;100652.00;;;24.80
13570;BMP180;6856;51.460;7.158;2023-09-08T07:41:30;100648.00;;;24.90
13570;BMP180;6856;51.460;7.158;2023-09-08T07:44:04;100648.00;;;25.00
13570;BMP180;6856;51.460;7.158;2023-09-08T07:46:38;100650.00;;;25.10
13570;BMP180;6856;51.460;7.158;2023-09-08T07:49:12;100652.00;;;25.20
13570;BMP180;6856;51.460;7.158;2023-09-08T07:51:52;100658.00;;;25.40
13570;BMP180;6856;51.460;7.158;2023-09-08T07:54:27;100655.00;;;25.50
13570;BMP180;6856;51.460;7.158;2023-09-08T07:57:02;100638.00;;;25.60
13570;BMP180;6856;51.460;7.158;2023-09-08T07:59:37;100654.00;;;25.70
13570;BMP180;6856;51.460;7.158;2023-09-08T08:02:11;100645.00;;;25.80
13570;BMP180;6856;51.460;7.158;2023-09-08T08:04:44;100643.00;;;26.00
13570;BMP180;6856;51.460;7.158;2023-09-08T08:07:18;100655.00;;;26.10
13570;BMP180;6856;51.460;7.158;2023-09-08T08:09:53;100653.00;;;26.20
13570;BMP180;6856;51.460;7.158;2023-09-08T08:12:27;100653.00;;;26.30
13570;BMP180;6856;51.460;7.158;2023-09-08T08:15:01;100655.00;;;26.50
13570;BMP180;6856;51.460;7.158;2023-09-08T08:17:37;100658.00;;;26.60
13570;BMP180;6856;51.460;7.158;2023-09-08T08:20:12;100656.00;;;26.60
13570;BMP180;6856;51.460;7.158;2023-09-08T08:22:50;100656.00;;;26.80
13570;BMP180;6856;51.460;7.158;2023-09-08T08:25:26;100656.00;;;26.90
13570;BMP180;6856;51.460;7.158;2023-09-08T08:28:00;100659.00;;;27.00
13570;BMP180;6856;51.460;7.158;2023-09-08T08:30:35;100655.00;;;27.10
13570;BMP180;6856;51.460;7.158;2023-09-08T08:33:09;100641.00;;;27.20
13570;BMP180;6856;51.460;7.158;2023-09-08T08:35:49;100665.00;;;27.40
13570;BMP180;6856;51.460;7.158;2023-09-08T08:38:23;100656.00;;;27.50
13570;BMP180;6856;51.460;7.158;2023-09-08T08:41:03;100657.00;;;27.60
13570;BMP180;6856;51.460;7.158;2023-09-08T08:43:37;100650.00;;;27.70
13570;BMP180;6856;51.460;7.158;2023-09-08T08:46:13;100651.00;;;27.90
13570;BMP180;6856;51.460;7.158;2023-09-08T08:48:48;100655.00;;;27.90
13570;BMP180;6856;51.460;7.158;2023-09-08T08:51:28;100655.00;;;28.10
13570;BMP180;6856;51.460;7.158;2023-09-08T08:54:03;100654.00;;;28.20
13570;BMP180;6856;51.460;7.158;2023-09-08T08:56:40;100652.00;;;28.30
13570;BMP180;6856;51.460;7.158;2023-09-08T08:59:15;100654.00;;;28.50
13570;BMP180;6856;51.460;7.158;2023-09-08T09:01:49;100645.00;;;28.60
13570;BMP180;6856;51.460;7.158;2023-09-08T09:04:25;100656.00;;;28.70
13570;BMP180;6856;51.460;7.158;2023-09-08T09:07:00;100656.00;;;28.80
13570;BMP180;6856;51.460;7.158;2023-09-08T09:09:35;100647.00;;;28.90
13570;BMP180;6856;51.460;7.158;2023-09-08T09:12:10;100649.00;;;29.10
13570;BMP180;6856;51.460;7.158;2023-09-08T09:14:47;100655.00;;;29.20
13570;BMP180;6856;51.460;7.158;2023-09-08T09:17:21;100657.00;;;29.30
13570;BMP180;6856;51.460;7.158;2023-09-08T09:20:13;100654.00;;;29.40
13570;BMP180;6856;51.460;7.158;2023-09-08T09:22:54;100661.00;;;29.50
13570;BMP180;6856;51.460;7.158;2023-09-08T09:25:30;100656.00;;;29.60
13570;BMP180;6856;51.460;7.158;2023-09-08T09:28:06;100656.00;;;29.70
13570;BMP180;6856;51.460;7.158;2023-09-08T09:30:50;100655.00;;;29.80
13570;BMP180;6856;51.460;7.158;2023-09-08T09:33:29;100650.00;;;30.00
13570;BMP180;6856;51.460;7.158;2023-09-08T09:36:03;100655.00;;;30.10
13570;BMP180;6856;51.460;7.158;2023-09-08T09:38:38;100655.00;;;30.30
13570;BMP180;6856;51.460;7.158;2023-09-08T09:41:12;100648.00;;;30.40
13570;BMP180;6856;51.460;7.158;2023-09-08T09:43:47;100659.00;;;30.50
13570;BMP180;6856;51.460;7.158;2023-09-08T09:46:21;100653.00;;;30.60
13570;BMP180;6856;51.460;7.158;2023-09-08T09:48:55;100646.00;;;30.70
13570;BMP180;6856;51.460;7.158;2023-09-08T09:51:30;100649.00;;;30.90
13570;BMP180;6856;51.460;7.158;2023-09-08T09:54:05;100652.00;;;31.00
13570;BMP180;6856;51.460;7.158;2023-09-08T09:56:41;100650.00;;;31.10
13570;BMP180;6856;51.460;7.158;2023-09-08T09:59:19;100649.00;;;31.20
13570;BMP180;6856;51.460;7.158;2023-09-08T10:01:53;100645.00;;;31.30
13570;BMP180;6856;51.460;7.158;2023-09-08T10:04:31;100649.00;;;31.40
13570;BMP180;6856;51.460;7.158;2023-09-08T10:07:05;100645.00;;;31.40
13570;BMP180;6856;51.460;7.158;2023-09-08T10:09:39;100652.00;;;31.60
13570;BMP180;6856;51.460;7.158;2023-09-08T10:12:16;100650.00;;;31.60
13570;BMP180;6856;51.460;7.158;2023-09-08T10:14:55;100654.00;;;31.70
13570;BMP180;6856;51.460;7.158;2023-09-08T10:17:31;100645.00;;;31.80
13570;BMP180;6856;51.460;7.158;2023-09-08T10:20:11;100649.00;;;31.80
13570;BMP180;6856;51.460;7.158;2023-09-08T10:22:54;100652.00;;;31.90
13570;BMP180;6856;51.460;7.158;2023-09-08T10:25:35;100656.00;;;32.00
13570;BMP180;6856;51.460;7.158;2023-09-08T10:28:12;100653.00;;;32.10
13570;BMP180;6856;51.460;7.158;2023-09-08T10:30:48;100650.00;;;32.20
13570;BMP180;6856;51.460;7.158;2023-09-08T10:33:23;100653.00;;;32.30
13570;BMP180;6856;51.460;7.158;2023-09-08T10:35:59;100649.00;;;32.40
13570;BMP180;6856;51.460;7.158;2023-09-08T10:38:35;100650.00;;;32.50
13570;BMP180;6856;51.460;7.158;2023-09-08T10:41:28;100643.00;;;32.50
13570;BMP180;6856;51.460;7.158;2023-09-08T10:44:07;100653.00;;;32.60
13570;BMP180;6856;51.460;7.158;2023-09-08T10:46:43;100650.00;;;32.60
13570;BMP180;6856;51.460;7.158;2023-09-08T10:49:17;100653.00;;;32.70
13570;BMP180;6856;51.460;7.158;2023-09-08T10:51:51;100656.00;;;32.80
13570;BMP180;6856;51.460;7.158;2023-09-08T10:54:43;100655.00;;;32.90
13570;BMP180;6856;51.460;7.158;2023-09-08T10:57:21;100655.00;;;32.90
13570;BMP180;6856;51.460;7.158;2023-09-08T10:59:57;100650.00;;;33.00
13570;BMP180;6856;51.460;7.158;2023-09-08T11:02:38;100657.00;;;33.10
13570;BMP180;6856;51.460;7.158;2023-09-08T11:05:14;100654.00;;;33.20
13570;BMP180;6856;51.460;7.158;2023-09-08T11:07:48;100655.00;;;33.30
13570;BMP180;6856;51.460;7.158;2023-09-08T11:10:24;100655.00;;;33.40
13570;BMP180;6856;51.460;7.158;2023-09-08T11:12:59;100655.00;;;33.50
13570;BMP180;6856;51.460;7.158;2023-09-08T11:15:35;100660.00;;;33.60
13570;BMP180;6856;51.460;7.158;2023-09-08T11:18:11;100659.00;;;33.60
13570;BMP180;6856;51.460;7.158;2023-09-08T11:20:45;100664.00;;;33.70
13570;BMP180;6856;51.460;7.158;2023-09-08T11:23:25;100655.00;;;33.80
13570;BMP180;6856;51.460;7.158;2023-09-08T11:26:00;100655.00;;;33.80
13570;BMP180;6856;51.460;7.158;2023-09-08T11:28:34;100657.00;;;33.80
13570;BMP180;6856;51.460;7.158;2023-09-08T11:31:11;100638.00;;;33.90
13570;BMP180;6856;51.460;7.158;2023-09-08T11:33:49;100652.00;;;33.90
13570;BMP180;6856;51.460;7.158;2023-09-08T11:36:23;100651.00;;;34.00
13570;BMP180;6856;51.460;7.158;2023-09-08T11:38:56;100656.00;;;34.00
13570;BMP180;6856;51.460;7.158;2023-09-08T11:41:31;100655.00;;;34.10
13570;BMP180;6856;51.460;7.158;2023-09-08T11:44:05;100654.00;;;34.10
13570;BMP180;6856;51.460;7.158;2023-09-08T11:46:40;100649.00;;;34.20
13570;BMP180;6856;51.460;7.158;2023-09-08T11:49:20;100644.00;;;34.20
13570;BMP180;6856;51.460;7.158;2023-09-08T11:51:55;100634.00;;;34.30
13570;BMP180;6856;51.460;7.158;2023-09-08T11:54:30;100650.00;;;34.30
13570;BMP180;6856;51.460;7.158;2023-09-08T11:57:05;100651.00;;;34.40
13570;BMP180;6856;51.460;7.158;2023-09-08T11:59:43;100643.00;;;34.40
13570;BMP180;6856;51.460;7.158;2023-09-08T12:02:20;100637.00;;;34.50
13570;BMP180;6856;51.460;7.158;2023-09-08T12:04:56;100643.00;;;34.60
13570;BMP180;6856;51.460;7.158;2023-09-08T12:07:30;100629.00;;;34.60
13570;BMP180;6856;51.460;7.158;2023-09-08T12:10:09;100642.00;;;34.70
13570;BMP180;6856;51.460;7.158;2023-09-08T12:12:44;100633.00;;;34.70
13570;BMP180;6856;51.460;7.158;2023-09-08T12:15:36;100634.00;;;34.80
13570;BMP180;6856;51.460;7.158;2023-09-08T12:18:11;100630.00;;;34.80
13570;BMP180;6856;51.460;7.158;2023-09-08T12:21:03;100640.00;;;34.80
13570;BMP180;6856;51.460;7.158;2023-09-08T12:23:47;100634.00;;;34.90
13570;BMP180;6856;51.460;7.158;2023-09-08T12:26:25;100624.00;;;34.90
13570;BMP180;6856;51.460;7.158;2023-09-08T12:28:58;100628.00;;;34.90
13570;BMP180;6856;51.460;7.158;2023-09-08T12:31:32;100628.00;;;34.90
13570;BMP180;6856;51.460;7.158;2023-09-08T12:34:06;100613.00;;;35.00
13570;BMP180;6856;51.460;7.158;2023-09-08T12:36:45;100627.00;;;35.00
13570;BMP180;6856;51.460;7.158;2023-09-08T12:39:19;100626.00;;;35.10
13570;BMP180;6856;51.460;7.158;2023-09-08T12:41:53;100624.00;;;35.10
13570;BMP180;6856;51.460;7.158;2023-09-08T12:44:27;100628.00;;;35.10
13570;BMP180;6856;51.460;7.158;2023-09-08T12:47:01;100618.00;;;35.10
13570;BMP180;6856;51.460;7.158;2023-09-08T12:49:34;100618.00;;;35.10
13570;BMP180;6856;51.460;7.158;2023-09-08T12:52:10;100621.00;;;35.10
13570;BMP180;6856;51.460;7.158;2023-09-08T12:54:43;100624.00;;;35.20
13570;BMP180;6856;51.460;7.158;2023-09-08T12:57:20;100619.00;;;35.20
13570;BMP180;6856;51.460;7.158;2023-09-08T12:59:56;100622.00;;;35.20
13570;BMP180;6856;51.460;7.158;2023-09-08T13:02:30;100617.00;;;35.20
13570;BMP180;6856;51.460;7.158;2023-09-08T13:05:05;100613.00;;;35.20
13570;BMP180;6856;51.460;7.158;2023-09-08T13:07:40;100608.00;;;35.20
13570;BMP180;6856;51.460;7.158;2023-09-08T13:10:14;100617.00;;;35.20
13570;BMP180;6856;51.460;7.158;2023-09-08T13:12:48;100607.00;;;35.20
13570;BMP180;6856;51.460;7.158;2023-09-08T13:15:22;100605.00;;;35.30
13570;BMP180;6856;51.460;7.158;2023-09-08T13:17:56;100607.00;;;35.30
13570;BMP180;6856;51.460;7.158;2023-09-08T13:20:30;100615.00;;;35.30
13570;BMP180;6856;51.460;7.158;2023-09-08T13:23:05;100613.00;;;35.30
13570;BMP180;6856;51.460;7.158;2023-09-08T13:25:39;100612.00;;;35.30
13570;BMP180;6856;51.460;7.158;2023-09-08T13:28:14;100603.00;;;35.30
13570;BMP180;6856;51.460;7.158;2023-09-08T13:30:47;100606.00;;;35.30
13570;BMP180;6856;51.460;7.158;2023-09-08T13:33:21;100603.00;;;35.30
13570;BMP180;6856;51.460;7.158;2023-09-08T13:35:54;100604.00;;;35.30
13570;BMP180;6856;51.460;7.158;2023-09-08T13:38:29;100597.00;;;35.30
13570;BMP180;6856;51.460;7.158;2023-09-08T13:41:03;100600.00;;;35.30
13570;BMP180;6856;51.460;7.158;2023-09-08T13:43:37;100595.00;;;35.30
13570;BMP180;6856;51.460;7.158;2023-09-08T13:46:10;100597.00;;;35.30
13570;BMP180;6856;51.460;7.158;2023-09-08T13:48:44;100592.00;;;35.30
13570;BMP180;6856;51.460;7.158;2023-09-08T13:51:20;100590.00;;;35.30
13570;BMP180;6856;51.460;7.158;2023-09-08T13:53:57;100587.00;;;35.30
13570;BMP180;6856;51.460;7.158;2023-09-08T13:56:39;100583.00;;;35.20
13570;BMP180;6856;51.460;7.158;2023-09-08T13:59:15;100587.00;;;35.20
13570;BMP180;6856;51.460;7.158;2023-09-08T14:01:51;100582.00;;;35.20
13570;BMP180;6856;51.460;7.158;2023-09-08T14:04:46;100566.00;;;35.20
13570;BMP180;6856;51.460;7.158;2023-09-08T14:07:25;100587.00;;;35.20
13570;BMP180;6856;51.460;7.158;2023-09-08T14:10:09;100587.00;;;35.20
13570;BMP180;6856;51.460;7.158;2023-09-08T14:12:46;100589.00;;;35.20
13570;BMP180;6856;51.460;7.158;2023-09-08T14:15:20;100587.00;;;35.20
13570;BMP180;6856;51.460;7.158;2023-09-08T14:17:57;100580.00;;;35.10
13570;BMP180;6856;51.460;7.158;2023-09-08T14:20:30;100583.00;;;35.10
13570;BMP180;6856;51.460;7.158;2023-09-08T14:23:04;100577.00;;;35.10
13570;BMP180;6856;51.460;7.158;2023-09-08T14:25:41;100589.00;;;35.10
13570;BMP180;6856;51.460;7.158;2023-09-08T14:28:17;100578.00;;;35.10
13570;BMP180;6856;51.460;7.158;2023-09-08T14:30:51;100578.00;;;35.00
13570;BMP180;6856;51.460;7.158;2023-09-08T14:33:25;100573.00;;;35.00
13570;BMP180;6856;51.460;7.158;2023-09-08T14:35:59;100565.00;;;35.00
13570;BMP180;6856;51.460;7.158;2023-09-08T14:38:36;100577.00;;;34.90
13570;BMP180;6856;51.460;7.158;2023-09-08T14:41:11;100564.00;;;34.90
13570;BMP180;6856;51.460;7.158;2023-09-08T14:43:44;100563.00;;;34.80
13570;BMP180;6856;51.460;7.158;2023-09-08T14:46:20;100567.00;;;34.80
13570;BMP180;6856;51.460;7.158;2023-09-08T14:48:55;100568.00;;;34.80
13570;BMP180;6856;51.460;7.158;2023-09-08T14:51:29;100565.00;;;34.70
13570;BMP180;6856;51.460;7.158;2023-09-08T14:54:04;100563.00;;;34.70
13570;BMP180;6856;51.460;7.158;2023-09-08T14:56:39;100563.00;;;34.70
13570;BMP180;6856;51.460;7.158;2023-09-08T14:59:13;100561.00;;;34.70